sensor_id;sensor_type;location;lat;lon;timestamp;P1;durP1;ratioP1;P2;durP2;ratioP2
13475;SDS011;6810;63.824;20.288;2022-10-13T00:01:13;1.30;;;0.60;;
13475;SDS011;6810;63.824;20.288;2022-10-13T00:03:42;1.53;;;0.70;;
13475;SDS011;6810;63.824;20.288;2022-10-13T00:06:19;0.40;;;0.30;;
13475;SDS011;6810;63.824;20.288;2022-10-13T00:08:49;1.33;;;0.57;;
13475;SDS011;6810;63.824;20.288;2022-10-13T00:11:20;1.10;;;0.60;;
13475;SDS011;6810;63.824;20.288;2022-10-13T00:13:49;1.20;;;0.60;;
13475;SDS011;6810;63.824;20.288;2022-10-13T00:16:18;1.70;;;0.60;;
13475;SDS011;6810;63.824;20.288;2022-10-13T00:18:47;0.80;;;0.50;;
13475;SDS011;6810;63.824;20.288;2022-10-13T00:21:16;1.47;;;0.60;;
13475;SDS011;6810;63.824;20.288;2022-10-13T00:23:47;1.10;;;0.60;;
13475;SDS011;6810;63.824;20.288;2022-10-13T00:26:18;2.27;;;0.77;;
13475;SDS011;6810;63.824;20.288;2022-10-13T00:28:46;0.63;;;0.50;;
13475;SDS011;6810;63.824;20.288;2022-10-13T00:31:19;1.80;;;0.60;;
13475;SDS011;6810;63.824;20.288;2022-10-13T00:33:51;1.33;;;0.57;;
13475;SDS011;6810;63.824;20.288;2022-10-13T00:36:20;1.03;;;0.60;;
13475;SDS011;6810;63.824;20.288;2022-10-13T00:38:48;0.83;;;0.53;;
13475;SDS011;6810;63.824;20.288;2022-10-13T00:41:16;1.03;;;0.60;;
13475;SDS011;6810;63.824;20.288;2022-10-13T00:46:18;0.80;;;0.53;;
13475;SDS011;6810;63.824;20.288;2022-10-13T00:48:54;1.43;;;0.50;;
13475;SDS011;6810;63.824;20.288;2022-10-13T00:51:23;1.40;;;0.63;;
13475;SDS011;6810;63.824;20.288;2022-10-13T00:53:55;1.53;;;0.50;;
13475;SDS011;6810;63.824;20.288;2022-10-13T00:56:24;1.57;;;0.60;;
13475;SDS011;6810;63.824;20.288;2022-10-13T00:58:52;0.67;;;0.50;;
13475;SDS011;6810;63.824;20.288;2022-10-13T01:01:21;0.40;;;0.40;;
13475;SDS011;6810;63.824;20.288;2022-10-13T01:03:48;0.60;;;0.50;;
13475;SDS011;6810;63.824;20.288;2022-10-13T01:06:15;0.60;;;0.40;;
13475;SDS011;6810;63.824;20.288;2022-10-13T01:08:49;0.87;;;0.50;;
13475;SDS011;6810;63.824;20.288;2022-10-13T01:13:46;0.90;;;0.50;;
13475;SDS011;6810;63.824;20.288;2022-10-13T01:30:17;0.50;;;0.50;;
13475;SDS011;6810;63.824;20.288;2022-10-13T01:35:26;1.00;;;0.50;;
13475;SDS011;6810;63.824;20.288;2022-10-13T01:40:35;0.90;;;0.50;;
13475;SDS011;6810;63.824;20.288;2022-10-13T01:45:46;0.87;;;0.53;;
13475;SDS011;6810;63.824;20.288;2022-10-13T01:48:17;0.70;;;0.50;;
13475;SDS011;6810;63.824;20.288;2022-10-13T01:50:49;0.87;;;0.57;;
13475;SDS011;6810;63.824;20.288;2022-10-13T01:53:19;2.20;;;0.60;;
13475;SDS011;6810;63.824;20.288;2022-10-13T01:55:55;1.00;;;0.70;;
13475;SDS011;6810;63.824;20.288;2022-10-13T01:58:26;1.53;;;0.63;;
13475;SDS011;6810;63.824;20.288;2022-10-13T02:06:21;0.80;;;0.70;;
13475;SDS011;6810;63.824;20.288;2022-10-13T02:09:10;2.83;;;1.10;;
13475;SDS011;6810;63.824;20.288;2022-10-13T02:11:48;2.10;;;0.67;;
13475;SDS011;6810;63.824;20.288;2022-10-13T02:14:22;1.60;;;0.60;;
13475;SDS011;6810;63.824;20.288;2022-10-13T02:16:52;0.60;;;0.50;;
13475;SDS011;6810;63.824;20.288;2022-10-13T02:19:21;1.40;;;0.80;;
13475;SDS011;6810;63.824;20.288;2022-10-13T02:21:49;0.77;;;0.63;;
13475;SDS011;6810;63.824;20.288;2022-10-13T02:24:18;2.10;;;0.87;;
13475;SDS011;6810;63.824;20.288;2022-10-13T02:26:45;2.07;;;0.80;;
13475;SDS011;6810;63.824;20.288;2022-10-13T02:29:18;1.50;;;0.70;;
13475;SDS011;6810;63.824;20.288;2022-10-13T02:31:45;1.93;;;0.90;;
13475;SDS011;6810;63.824;20.288;2022-10-13T02:34:13;0.70;;;0.57;;
13475;SDS011;6810;63.824;20.288;2022-10-13T02:36:43;0.70;;;0.57;;
13475;SDS011;6810;63.824;20.288;2022-10-13T02:39:10;1.10;;;0.60;;
13475;SDS011;6810;63.824;20.288;2022-10-13T02:41:37;0.70;;;0.40;;
13475;SDS011;6810;63.824;20.288;2022-10-13T02:44:04;1.23;;;0.50;;
13475;SDS011;6810;63.824;20.288;2022-10-13T02:46:33;0.50;;;0.40;;
13475;SDS011;6810;63.824;20.288;2022-10-13T02:49:00;1.43;;;0.60;;
13475;SDS011;6810;63.824;20.288;2022-10-13T02:51:27;1.40;;;0.83;;
13475;SDS011;6810;63.824;20.288;2022-10-13T02:53:54;1.50;;;0.63;;
13475;SDS011;6810;63.824;20.288;2022-10-13T02:56:21;0.87;;;0.53;;
13475;SDS011;6810;63.824;20.288;2022-10-13T02:58:48;0.63;;;0.63;;
13475;SDS011;6810;63.824;20.288;2022-10-13T03:01:15;0.87;;;0.73;;
13475;SDS011;6810;63.824;20.288;2022-10-13T03:03:42;2.03;;;0.87;;
13475;SDS011;6810;63.824;20.288;2022-10-13T03:06:09;1.10;;;0.77;;
13475;SDS011;6810;63.824;20.288;2022-10-13T03:08:37;0.60;;;0.60;;
13475;SDS011;6810;63.824;20.288;2022-10-13T03:11:04;1.20;;;0.60;;
13475;SDS011;6810;63.824;20.288;2022-10-13T03:13:32;1.30;;;0.70;;
13475;SDS011;6810;63.824;20.288;2022-10-13T03:16:05;1.20;;;0.63;;
13475;SDS011;6810;63.824;20.288;2022-10-13T03:18:32;0.73;;;0.50;;
13475;SDS011;6810;63.824;20.288;2022-10-13T03:21:01;1.07;;;0.50;;
13475;SDS011;6810;63.824;20.288;2022-10-13T03:23:29;2.10;;;0.67;;
13475;SDS011;6810;63.824;20.288;2022-10-13T03:25:57;2.63;;;0.50;;
13475;SDS011;6810;63.824;20.288;2022-10-13T03:28:24;0.93;;;0.37;;
13475;SDS011;6810;63.824;20.288;2022-10-13T03:31:04;1.40;;;0.70;;
13475;SDS011;6810;63.824;20.288;2022-10-13T03:33:33;1.70;;;0.50;;
13475;SDS011;6810;63.824;20.288;2022-10-13T03:36:01;0.93;;;0.53;;
13475;SDS011;6810;63.824;20.288;2022-10-13T03:38:30;0.90;;;0.40;;
13475;SDS011;6810;63.824;20.288;2022-10-13T03:41:09;0.60;;;0.40;;
13475;SDS011;6810;63.824;20.288;2022-10-13T03:43:37;0.70;;;0.63;;
13475;SDS011;6810;63.824;20.288;2022-10-13T03:46:05;1.27;;;0.70;;
13475;SDS011;6810;63.824;20.288;2022-10-13T03:48:33;1.27;;;0.50;;
13475;SDS011;6810;63.824;20.288;2022-10-13T03:51:08;1.73;;;1.33;;
13475;SDS011;6810;63.824;20.288;2022-10-13T03:53:43;0.57;;;0.40;;
13475;SDS011;6810;63.824;20.288;2022-10-13T03:56:18;0.30;;;0.30;;
13475;SDS011;6810;63.824;20.288;2022-10-13T03:58:50;2.00;;;0.53;;
13475;SDS011;6810;63.824;20.288;2022-10-13T04:01:20;1.37;;;0.70;;
13475;SDS011;6810;63.824;20.288;2022-10-13T04:03:49;0.40;;;0.30;;
13475;SDS011;6810;63.824;20.288;2022-10-13T04:06:18;2.27;;;0.70;;
13475;SDS011;6810;63.824;20.288;2022-10-13T04:08:45;0.87;;;0.60;;
13475;SDS011;6810;63.824;20.288;2022-10-13T04:11:13;0.60;;;0.40;;
13475;SDS011;6810;63.824;20.288;2022-10-13T04:13:43;0.93;;;0.60;;
13475;SDS011;6810;63.824;20.288;2022-10-13T04:16:14;1.33;;;0.40;;
13475;SDS011;6810;63.824;20.288;2022-10-13T04:18:49;0.63;;;0.33;;
13475;SDS011;6810;63.824;20.288;2022-10-13T04:21:18;2.30;;;0.63;;
13475;SDS011;6810;63.824;20.288;2022-10-13T04:23:45;1.53;;;0.60;;
13475;SDS011;6810;63.824;20.288;2022-10-13T04:26:16;0.70;;;0.60;;
13475;SDS011;6810;63.824;20.288;2022-10-13T04:28:45;0.43;;;0.30;;
13475;SDS011;6810;63.824;20.288;2022-10-13T04:31:14;1.10;;;0.70;;
13475;SDS011;6810;63.824;20.288;2022-10-13T04:33:41;1.63;;;0.40;;
13475;SDS011;6810;63.824;20.288;2022-10-13T04:36:29;2.40;;;0.73;;
13475;SDS011;6810;63.824;20.288;2022-10-13T04:39:16;1.23;;;0.40;;
13475;SDS011;6810;63.824;20.288;2022-10-13T04:42:03;0.57;;;0.30;;
13475;SDS011;6810;63.824;20.288;2022-10-13T04:44:50;2.30;;;0.40;;
13475;SDS011;6810;63.824;20.288;2022-10-13T04:47:40;0.43;;;0.30;;
13475;SDS011;6810;63.824;20.288;2022-10-13T04:50:27;1.37;;;0.33;;
13475;SDS011;6810;63.824;20.288;2022-10-13T04:53:14;0.70;;;0.40;;
13475;SDS011;6810;63.824;20.288;2022-10-13T04:56:05;1.27;;;0.37;;
13475;SDS011;6810;63.824;20.288;2022-10-13T04:58:59;1.23;;;0.40;;
13475;SDS011;6810;63.824;20.288;2022-10-13T05:01:46;1.70;;;0.30;;
13475;SDS011;6810;63.824;20.288;2022-10-13T05:04:33;0.40;;;0.40;;
13475;SDS011;6810;63.824;20.288;2022-10-13T05:07:20;0.93;;;0.40;;
13475;SDS011;6810;63.824;20.288;2022-10-13T05:10:07;0.43;;;0.30;;
13475;SDS011;6810;63.824;20.288;2022-10-13T05:12:43;0.80;;;0.40;;
13475;SDS011;6810;63.824;20.288;2022-10-13T05:15:10;1.67;;;0.50;;
13475;SDS011;6810;63.824;20.288;2022-10-13T05:17:57;1.80;;;0.57;;
13475;SDS011;6810;63.824;20.288;2022-10-13T05:20:45;1.10;;;0.40;;
13475;SDS011;6810;63.824;20.288;2022-10-13T05:23:33;1.37;;;0.67;;
13475;SDS011;6810;63.824;20.288;2022-10-13T05:26:20;2.00;;;0.63;;
13475;SDS011;6810;63.824;20.288;2022-10-13T05:29:10;1.53;;;0.50;;
13475;SDS011;6810;63.824;20.288;2022-10-13T05:31:57;1.77;;;0.70;;
13475;SDS011;6810;63.824;20.288;2022-10-13T05:34:46;1.07;;;0.40;;
13475;SDS011;6810;63.824;20.288;2022-10-13T05:37:35;1.20;;;0.50;;
13475;SDS011;6810;63.824;20.288;2022-10-13T05:40:22;2.00;;;0.50;;
13475;SDS011;6810;63.824;20.288;2022-10-13T05:43:09;1.50;;;0.90;;
13475;SDS011;6810;63.824;20.288;2022-10-13T05:45:36;0.83;;;0.67;;
13475;SDS011;6810;63.824;20.288;2022-10-13T05:48:03;3.70;;;0.67;;
13475;SDS011;6810;63.824;20.288;2022-10-13T05:50:50;0.97;;;0.70;;
13475;SDS011;6810;63.824;20.288;2022-10-13T05:53:38;0.67;;;0.40;;
13475;SDS011;6810;63.824;20.288;2022-10-13T05:56:34;0.60;;;0.40;;
13475;SDS011;6810;63.824;20.288;2022-10-13T05:59:26;0.50;;;0.50;;
13475;SDS011;6810;63.824;20.288;2022-10-13T06:02:16;1.03;;;0.60;;
13475;SDS011;6810;63.824;20.288;2022-10-13T06:05:06;1.17;;;0.60;;
13475;SDS011;6810;63.824;20.288;2022-10-13T06:07:59;1.63;;;0.50;;
13475;SDS011;6810;63.824;20.288;2022-10-13T06:10:50;1.50;;;0.53;;
13475;SDS011;6810;63.824;20.288;2022-10-13T06:13:37;2.73;;;0.70;;
13475;SDS011;6810;63.824;20.288;2022-10-13T06:16:24;2.43;;;0.60;;
13475;SDS011;6810;63.824;20.288;2022-10-13T06:19:11;1.10;;;0.53;;
13475;SDS011;6810;63.824;20.288;2022-10-13T06:22:05;2.03;;;0.63;;
13475;SDS011;6810;63.824;20.288;2022-10-13T06:24:53;0.50;;;0.40;;
13475;SDS011;6810;63.824;20.288;2022-10-13T06:27:40;2.23;;;0.60;;
13475;SDS011;6810;63.824;20.288;2022-10-13T06:30:27;1.00;;;0.80;;
13475;SDS011;6810;63.824;20.288;2022-10-13T06:33:15;0.90;;;0.80;;
13475;SDS011;6810;63.824;20.288;2022-10-13T06:36:03;1.90;;;0.60;;
13475;SDS011;6810;63.824;20.288;2022-10-13T06:38:50;0.50;;;0.40;;
13475;SDS011;6810;63.824;20.288;2022-10-13T06:41:37;1.40;;;0.50;;
13475;SDS011;6810;63.824;20.288;2022-10-13T06:44:28;0.50;;;0.50;;
13475;SDS011;6810;63.824;20.288;2022-10-13T06:47:18;1.23;;;0.53;;
13475;SDS011;6810;63.824;20.288;2022-10-13T06:50:05;0.67;;;0.53;;
13475;SDS011;6810;63.824;20.288;2022-10-13T06:52:54;0.93;;;0.67;;
13475;SDS011;6810;63.824;20.288;2022-10-13T06:55:41;1.57;;;0.60;;
13475;SDS011;6810;63.824;20.288;2022-10-13T06:58:09;0.80;;;0.60;;
13475;SDS011;6810;63.824;20.288;2022-10-13T07:00:56;0.80;;;0.47;;
13475;SDS011;6810;63.824;20.288;2022-10-13T07:03:43;1.10;;;0.57;;
13475;SDS011;6810;63.824;20.288;2022-10-13T07:06:34;0.73;;;0.50;;
13475;SDS011;6810;63.824;20.288;2022-10-13T07:09:21;2.03;;;0.50;;
13475;SDS011;6810;63.824;20.288;2022-10-13T07:12:08;0.50;;;0.50;;
13475;SDS011;6810;63.824;20.288;2022-10-13T07:14:55;0.87;;;0.60;;
13475;SDS011;6810;63.824;20.288;2022-10-13T07:17:23;1.47;;;0.53;;
13475;SDS011;6810;63.824;20.288;2022-10-13T07:19:49;0.90;;;0.57;;
13475;SDS011;6810;63.824;20.288;2022-10-13T07:22:20;1.10;;;0.40;;
13475;SDS011;6810;63.824;20.288;2022-10-13T07:24:47;2.37;;;0.57;;
13475;SDS011;6810;63.824;20.288;2022-10-13T07:27:13;3.43;;;0.60;;
13475;SDS011;6810;63.824;20.288;2022-10-13T07:29:40;2.10;;;0.60;;
13475;SDS011;6810;63.824;20.288;2022-10-13T07:32:28;1.43;;;0.53;;
13475;SDS011;6810;63.824;20.288;2022-10-13T07:35:15;2.50;;;0.70;;
13475;SDS011;6810;63.824;20.288;2022-10-13T07:38:02;1.17;;;0.70;;
13475;SDS011;6810;63.824;20.288;2022-10-13T07:40:51;1.77;;;0.90;;
13475;SDS011;6810;63.824;20.288;2022-10-13T07:43:38;2.40;;;0.60;;
13475;SDS011;6810;63.824;20.288;2022-10-13T07:46:25;2.13;;;0.70;;
13475;SDS011;6810;63.824;20.288;2022-10-13T07:49:12;1.90;;;0.70;;
13475;SDS011;6810;63.824;20.288;2022-10-13T07:52:02;0.97;;;0.80;;
13475;SDS011;6810;63.824;20.288;2022-10-13T07:54:49;0.73;;;0.70;;
13475;SDS011;6810;63.824;20.288;2022-10-13T07:57:37;1.70;;;0.73;;
13475;SDS011;6810;63.824;20.288;2022-10-13T08:00:25;1.30;;;0.70;;
13475;SDS011;6810;63.824;20.288;2022-10-13T08:03:12;4.63;;;1.13;;
13475;SDS011;6810;63.824;20.288;2022-10-13T08:06:00;1.37;;;0.80;;
13475;SDS011;6810;63.824;20.288;2022-10-13T08:08:52;3.30;;;0.90;;
13475;SDS011;6810;63.824;20.288;2022-10-13T08:11:39;1.37;;;0.93;;
13475;SDS011;6810;63.824;20.288;2022-10-13T08:14:28;2.00;;;0.73;;
13475;SDS011;6810;63.824;20.288;2022-10-13T08:17:15;1.93;;;0.80;;
13475;SDS011;6810;63.824;20.288;2022-10-13T08:20:03;0.73;;;0.70;;
13475;SDS011;6810;63.824;20.288;2022-10-13T08:23:06;3.13;;;0.83;;
13475;SDS011;6810;63.824;20.288;2022-10-13T08:25:54;1.43;;;0.83;;
13475;SDS011;6810;63.824;20.288;2022-10-13T08:28:41;0.70;;;0.70;;
13475;SDS011;6810;63.824;20.288;2022-10-13T08:31:47;1.40;;;0.50;;
13475;SDS011;6810;63.824;20.288;2022-10-13T08:34:34;2.80;;;1.00;;
13475;SDS011;6810;63.824;20.288;2022-10-13T08:37:23;3.77;;;0.90;;
13475;SDS011;6810;63.824;20.288;2022-10-13T08:40:13;3.67;;;0.90;;
13475;SDS011;6810;63.824;20.288;2022-10-13T08:43:08;1.47;;;0.77;;
13475;SDS011;6810;63.824;20.288;2022-10-13T08:46:01;1.70;;;0.87;;
13475;SDS011;6810;63.824;20.288;2022-10-13T08:48:48;1.40;;;0.90;;
13475;SDS011;6810;63.824;20.288;2022-10-13T08:51:35;1.63;;;0.80;;
13475;SDS011;6810;63.824;20.288;2022-10-13T08:54:22;3.53;;;0.80;;
13475;SDS011;6810;63.824;20.288;2022-10-13T08:57:11;1.40;;;0.80;;
13475;SDS011;6810;63.824;20.288;2022-10-13T08:59:58;0.80;;;0.80;;
13475;SDS011;6810;63.824;20.288;2022-10-13T09:02:47;1.67;;;0.80;;
13475;SDS011;6810;63.824;20.288;2022-10-13T09:05:43;2.37;;;1.00;;
13475;SDS011;6810;63.824;20.288;2022-10-13T09:08:42;2.03;;;1.00;;
13475;SDS011;6810;63.824;20.288;2022-10-13T09:11:37;1.97;;;0.90;;
13475;SDS011;6810;63.824;20.288;2022-10-13T09:17:19;1.53;;;0.97;;
13475;SDS011;6810;63.824;20.288;2022-10-13T09:20:18;5.37;;;1.40;;
13475;SDS011;6810;63.824;20.288;2022-10-13T09:26:08;2.27;;;1.00;;
13475;SDS011;6810;63.824;20.288;2022-10-13T09:29:08;2.67;;;1.37;;
13475;SDS011;6810;63.824;20.288;2022-10-13T09:35:21;2.00;;;0.83;;
13475;SDS011;6810;63.824;20.288;2022-10-13T09:38:16;4.23;;;1.20;;
13475;SDS011;6810;63.824;20.288;2022-10-13T09:43:59;2.60;;;1.33;;
13475;SDS011;6810;63.824;20.288;2022-10-13T09:46:58;3.00;;;1.30;;
13475;SDS011;6810;63.824;20.288;2022-10-13T09:49:57;2.50;;;1.20;;
13475;SDS011;6810;63.824;20.288;2022-10-13T09:53:16;2.00;;;1.20;;
13475;SDS011;6810;63.824;20.288;2022-10-13T09:56:27;1.70;;;1.20;;
13475;SDS011;6810;63.824;20.288;2022-10-13T10:02:32;3.23;;;1.57;;
13475;SDS011;6810;63.824;20.288;2022-10-13T10:08:20;2.27;;;1.10;;
13475;SDS011;6810;63.824;20.288;2022-10-13T10:11:29;1.50;;;1.30;;
13475;SDS011;6810;63.824;20.288;2022-10-13T10:26:19;2.23;;;0.93;;
13475;SDS011;6810;63.824;20.288;2022-10-13T10:40:50;1.40;;;0.80;;
13475;SDS011;6810;63.824;20.288;2022-10-13T10:46:41;2.70;;;0.90;;
13475;SDS011;6810;63.824;20.288;2022-10-13T10:49:33;3.90;;;0.90;;
13475;SDS011;6810;63.824;20.288;2022-10-13T10:52:23;0.83;;;0.67;;
13475;SDS011;6810;63.824;20.288;2022-10-13T10:58:39;1.43;;;0.80;;
13475;SDS011;6810;63.824;20.288;2022-10-13T11:04:53;1.23;;;1.13;;
13475;SDS011;6810;63.824;20.288;2022-10-13T11:10:28;1.83;;;0.70;;
13475;SDS011;6810;63.824;20.288;2022-10-13T11:13:16;1.53;;;0.73;;
13475;SDS011;6810;63.824;20.288;2022-10-13T11:16:25;2.90;;;0.97;;
13475;SDS011;6810;63.824;20.288;2022-10-13T11:19:58;2.47;;;0.80;;
13475;SDS011;6810;63.824;20.288;2022-10-13T11:22:24;0.80;;;0.80;;
13475;SDS011;6810;63.824;20.288;2022-10-13T11:31:48;1.30;;;0.77;;
13475;SDS011;6810;63.824;20.288;2022-10-13T11:34:37;1.50;;;0.90;;
13475;SDS011;6810;63.824;20.288;2022-10-13T11:37:25;0.93;;;0.57;;
13475;SDS011;6810;63.824;20.288;2022-10-13T11:41:05;1.80;;;0.70;;
13475;SDS011;6810;63.824;20.288;2022-10-13T11:44:12;2.37;;;0.70;;
13475;SDS011;6810;63.824;20.288;2022-10-13T11:59:34;2.60;;;0.77;;
13475;SDS011;6810;63.824;20.288;2022-10-13T12:02:27;1.87;;;1.00;;
13475;SDS011;6810;63.824;20.288;2022-10-13T12:05:23;2.73;;;0.77;;
13475;SDS011;6810;63.824;20.288;2022-10-13T12:08:11;2.63;;;0.90;;
13475;SDS011;6810;63.824;20.288;2022-10-13T12:10:58;1.20;;;0.90;;
13475;SDS011;6810;63.824;20.288;2022-10-13T12:13:46;1.17;;;0.60;;
13475;SDS011;6810;63.824;20.288;2022-10-13T12:16:33;1.33;;;0.70;;
13475;SDS011;6810;63.824;20.288;2022-10-13T12:19:26;2.50;;;0.70;;
13475;SDS011;6810;63.824;20.288;2022-10-13T12:22:15;1.80;;;0.90;;
13475;SDS011;6810;63.824;20.288;2022-10-13T12:25:06;2.03;;;0.70;;
13475;SDS011;6810;63.824;20.288;2022-10-13T12:27:57;2.73;;;1.00;;
13475;SDS011;6810;63.824;20.288;2022-10-13T12:30:53;1.57;;;0.80;;
13475;SDS011;6810;63.824;20.288;2022-10-13T12:33:43;2.60;;;1.10;;
13475;SDS011;6810;63.824;20.288;2022-10-13T12:36:45;0.70;;;0.60;;
13475;SDS011;6810;63.824;20.288;2022-10-13T12:40:00;2.33;;;0.90;;
13475;SDS011;6810;63.824;20.288;2022-10-13T12:42:48;1.83;;;0.87;;
13475;SDS011;6810;63.824;20.288;2022-10-13T12:45:36;2.13;;;0.73;;
13475;SDS011;6810;63.824;20.288;2022-10-13T12:48:32;1.97;;;0.97;;
13475;SDS011;6810;63.824;20.288;2022-10-13T12:51:22;2.43;;;0.90;;
13475;SDS011;6810;63.824;20.288;2022-10-13T12:54:20;2.03;;;1.07;;
13475;SDS011;6810;63.824;20.288;2022-10-13T12:57:43;0.90;;;0.77;;
13475;SDS011;6810;63.824;20.288;2022-10-13T13:00:24;2.43;;;0.63;;
13475;SDS011;6810;63.824;20.288;2022-10-13T13:03:20;1.40;;;0.77;;
13475;SDS011;6810;63.824;20.288;2022-10-13T13:12:02;2.33;;;0.90;;
13475;SDS011;6810;63.824;20.288;2022-10-13T13:14:58;2.60;;;0.90;;
13475;SDS011;6810;63.824;20.288;2022-10-13T13:21:11;1.60;;;0.90;;
13475;SDS011;6810;63.824;20.288;2022-10-13T13:23:59;3.83;;;1.00;;
13475;SDS011;6810;63.824;20.288;2022-10-13T13:30:16;2.07;;;0.80;;
13475;SDS011;6810;63.824;20.288;2022-10-13T13:33:05;2.43;;;1.37;;
13475;SDS011;6810;63.824;20.288;2022-10-13T13:35:53;2.40;;;1.10;;
13475;SDS011;6810;63.824;20.288;2022-10-13T13:38:42;2.13;;;1.30;;
13475;SDS011;6810;63.824;20.288;2022-10-13T13:41:29;3.20;;;1.37;;
13475;SDS011;6810;63.824;20.288;2022-10-13T13:44:16;2.30;;;1.30;;
13475;SDS011;6810;63.824;20.288;2022-10-13T13:47:03;3.20;;;1.40;;
13475;SDS011;6810;63.824;20.288;2022-10-13T13:49:51;4.07;;;1.60;;
13475;SDS011;6810;63.824;20.288;2022-10-13T13:52:40;3.97;;;1.67;;
13475;SDS011;6810;63.824;20.288;2022-10-13T13:55:28;3.43;;;1.40;;
13475;SDS011;6810;63.824;20.288;2022-10-13T13:58:11;3.97;;;1.20;;
13475;SDS011;6810;63.824;20.288;2022-10-13T14:00:58;3.03;;;1.67;;
13475;SDS011;6810;63.824;20.288;2022-10-13T14:03:45;2.50;;;1.10;;
13475;SDS011;6810;63.824;20.288;2022-10-13T14:06:32;3.50;;;1.30;;
13475;SDS011;6810;63.824;20.288;2022-10-13T14:09:19;2.67;;;1.63;;
13475;SDS011;6810;63.824;20.288;2022-10-13T14:12:08;3.80;;;1.63;;
13475;SDS011;6810;63.824;20.288;2022-10-13T14:14:55;4.27;;;1.60;;
13475;SDS011;6810;63.824;20.288;2022-10-13T14:17:42;4.73;;;1.40;;
13475;SDS011;6810;63.824;20.288;2022-10-13T14:20:29;3.93;;;1.90;;
13475;SDS011;6810;63.824;20.288;2022-10-13T14:23:16;3.57;;;1.63;;
13475;SDS011;6810;63.824;20.288;2022-10-13T14:26:04;4.60;;;1.60;;
13475;SDS011;6810;63.824;20.288;2022-10-13T14:28:52;2.83;;;1.40;;
13475;SDS011;6810;63.824;20.288;2022-10-13T14:31:39;2.93;;;1.40;;
13475;SDS011;6810;63.824;20.288;2022-10-13T14:34:26;4.70;;;1.43;;
13475;SDS011;6810;63.824;20.288;2022-10-13T14:37:13;3.07;;;1.10;;
13475;SDS011;6810;63.824;20.288;2022-10-13T14:40:01;3.00;;;1.50;;
13475;SDS011;6810;63.824;20.288;2022-10-13T14:42:48;3.53;;;1.90;;
13475;SDS011;6810;63.824;20.288;2022-10-13T14:45:35;3.10;;;1.50;;
13475;SDS011;6810;63.824;20.288;2022-10-13T14:48:22;4.00;;;1.43;;
13475;SDS011;6810;63.824;20.288;2022-10-13T14:51:09;3.03;;;1.63;;
13475;SDS011;6810;63.824;20.288;2022-10-13T14:53:56;4.47;;;1.70;;
13475;SDS011;6810;63.824;20.288;2022-10-13T14:56:44;2.60;;;1.53;;
13475;SDS011;6810;63.824;20.288;2022-10-13T14:59:31;1.90;;;1.10;;
13475;SDS011;6810;63.824;20.288;2022-10-13T15:02:23;4.97;;;1.90;;
13475;SDS011;6810;63.824;20.288;2022-10-13T15:05:10;4.33;;;2.00;;
13475;SDS011;6810;63.824;20.288;2022-10-13T15:07:57;5.40;;;2.17;;
13475;SDS011;6810;63.824;20.288;2022-10-13T15:10:44;3.67;;;1.80;;
13475;SDS011;6810;63.824;20.288;2022-10-13T15:13:31;2.50;;;1.43;;
13475;SDS011;6810;63.824;20.288;2022-10-13T15:16:19;3.80;;;1.93;;
13475;SDS011;6810;63.824;20.288;2022-10-13T15:19:08;3.60;;;1.73;;
13475;SDS011;6810;63.824;20.288;2022-10-13T15:21:55;3.67;;;1.60;;
13475;SDS011;6810;63.824;20.288;2022-10-13T15:24:42;4.63;;;1.67;;
13475;SDS011;6810;63.824;20.288;2022-10-13T15:27:29;2.53;;;1.40;;
13475;SDS011;6810;63.824;20.288;2022-10-13T15:30:16;4.20;;;1.47;;
13475;SDS011;6810;63.824;20.288;2022-10-13T15:33:07;3.10;;;1.37;;
13475;SDS011;6810;63.824;20.288;2022-10-13T15:35:55;3.77;;;1.40;;
13475;SDS011;6810;63.824;20.288;2022-10-13T15:38:42;4.37;;;1.33;;
13475;SDS011;6810;63.824;20.288;2022-10-13T15:41:36;5.13;;;1.37;;
13475;SDS011;6810;63.824;20.288;2022-10-13T15:44:23;6.37;;;1.50;;
13475;SDS011;6810;63.824;20.288;2022-10-13T15:47:31;2.43;;;1.20;;
13475;SDS011;6810;63.824;20.288;2022-10-13T15:50:18;4.10;;;1.47;;
13475;SDS011;6810;63.824;20.288;2022-10-13T15:53:05;1.77;;;1.10;;
13475;SDS011;6810;63.824;20.288;2022-10-13T15:55:52;4.77;;;1.70;;
13475;SDS011;6810;63.824;20.288;2022-10-13T15:58:39;3.40;;;1.60;;
13475;SDS011;6810;63.824;20.288;2022-10-13T16:01:26;6.73;;;2.10;;
13475;SDS011;6810;63.824;20.288;2022-10-13T16:03:53;4.30;;;1.67;;
13475;SDS011;6810;63.824;20.288;2022-10-13T16:06:21;3.43;;;1.63;;
13475;SDS011;6810;63.824;20.288;2022-10-13T16:08:48;2.60;;;0.93;;
13475;SDS011;6810;63.824;20.288;2022-10-13T16:11:35;3.10;;;1.30;;
13475;SDS011;6810;63.824;20.288;2022-10-13T16:14:22;3.03;;;1.00;;
13475;SDS011;6810;63.824;20.288;2022-10-13T16:17:09;3.53;;;1.50;;
13475;SDS011;6810;63.824;20.288;2022-10-13T16:19:36;4.50;;;1.23;;
13475;SDS011;6810;63.824;20.288;2022-10-13T16:22:24;2.67;;;1.20;;
13475;SDS011;6810;63.824;20.288;2022-10-13T16:25:11;1.70;;;1.33;;
13475;SDS011;6810;63.824;20.288;2022-10-13T16:27:58;2.67;;;1.47;;
13475;SDS011;6810;63.824;20.288;2022-10-13T16:30:45;5.10;;;1.10;;
13475;SDS011;6810;63.824;20.288;2022-10-13T16:33:36;5.30;;;1.60;;
13475;SDS011;6810;63.824;20.288;2022-10-13T16:36:23;3.33;;;1.30;;
13475;SDS011;6810;63.824;20.288;2022-10-13T16:39:10;3.23;;;1.30;;
13475;SDS011;6810;63.824;20.288;2022-10-13T16:41:57;2.87;;;1.90;;
13475;SDS011;6810;63.824;20.288;2022-10-13T16:44:44;3.30;;;1.70;;
13475;SDS011;6810;63.824;20.288;2022-10-13T16:47:31;4.73;;;1.87;;
13475;SDS011;6810;63.824;20.288;2022-10-13T16:50:18;3.40;;;2.50;;
13475;SDS011;6810;63.824;20.288;2022-10-13T16:53:05;3.97;;;2.30;;
13475;SDS011;6810;63.824;20.288;2022-10-13T16:55:52;4.50;;;2.30;;
13475;SDS011;6810;63.824;20.288;2022-10-13T16:58:39;3.30;;;2.00;;
13475;SDS011;6810;63.824;20.288;2022-10-13T17:01:26;3.17;;;1.93;;
13475;SDS011;6810;63.824;20.288;2022-10-13T17:04:15;4.50;;;2.00;;
13475;SDS011;6810;63.824;20.288;2022-10-13T17:07:02;6.27;;;2.67;;
13475;SDS011;6810;63.824;20.288;2022-10-13T17:09:49;4.43;;;2.50;;
13475;SDS011;6810;63.824;20.288;2022-10-13T17:12:37;4.83;;;2.17;;
13475;SDS011;6810;63.824;20.288;2022-10-13T17:15:24;4.17;;;2.57;;
13475;SDS011;6810;63.824;20.288;2022-10-13T17:18:11;4.27;;;2.07;;
13475;SDS011;6810;63.824;20.288;2022-10-13T17:20:59;4.17;;;2.03;;
13475;SDS011;6810;63.824;20.288;2022-10-13T17:23:47;3.80;;;1.83;;
13475;SDS011;6810;63.824;20.288;2022-10-13T17:26:35;3.10;;;1.80;;
13475;SDS011;6810;63.824;20.288;2022-10-13T17:29:23;3.23;;;1.83;;
13475;SDS011;6810;63.824;20.288;2022-10-13T17:32:10;3.33;;;1.93;;
13475;SDS011;6810;63.824;20.288;2022-10-13T17:34:59;3.20;;;1.93;;
13475;SDS011;6810;63.824;20.288;2022-10-13T17:37:47;3.40;;;1.83;;
13475;SDS011;6810;63.824;20.288;2022-10-13T17:40:35;3.83;;;1.50;;
13475;SDS011;6810;63.824;20.288;2022-10-13T17:43:25;3.03;;;1.70;;
13475;SDS011;6810;63.824;20.288;2022-10-13T17:46:17;4.33;;;2.30;;
13475;SDS011;6810;63.824;20.288;2022-10-13T17:49:08;3.00;;;2.10;;
13475;SDS011;6810;63.824;20.288;2022-10-13T17:51:57;3.90;;;2.23;;
13475;SDS011;6810;63.824;20.288;2022-10-13T17:54:44;5.17;;;2.00;;
13475;SDS011;6810;63.824;20.288;2022-10-13T17:57:32;4.30;;;2.00;;
13475;SDS011;6810;63.824;20.288;2022-10-13T18:00:19;3.73;;;2.10;;
13475;SDS011;6810;63.824;20.288;2022-10-13T18:03:26;5.20;;;2.10;;
13475;SDS011;6810;63.824;20.288;2022-10-13T18:06:13;3.07;;;2.00;;
13475;SDS011;6810;63.824;20.288;2022-10-13T18:08:41;5.33;;;2.57;;
13475;SDS011;6810;63.824;20.288;2022-10-13T18:11:09;4.40;;;2.33;;
13475;SDS011;6810;63.824;20.288;2022-10-13T18:13:38;5.93;;;3.20;;
13475;SDS011;6810;63.824;20.288;2022-10-13T18:16:06;6.90;;;3.33;;
13475;SDS011;6810;63.824;20.288;2022-10-13T18:18:38;6.00;;;3.03;;
13475;SDS011;6810;63.824;20.288;2022-10-13T18:21:06;7.67;;;2.83;;
13475;SDS011;6810;63.824;20.288;2022-10-13T18:23:34;6.13;;;3.23;;